createdAt,value
2019-03-29T00:00:32.128Z,4.20
2019-03-29T00:03:04.245Z,4.10
2019-03-29T00:05:36.553Z,4.10
2019-03-29T00:08:09.081Z,4.00
2019-03-29T00:10:41.118Z,4.00
2019-03-29T00:13:14.591Z,4.00
2019-03-29T00:15:46.698Z,4.00
2019-03-29T00:18:18.731Z,4.00
2019-03-29T00:20:52.029Z,4.00
2019-03-29T00:23:24.133Z,4.00
2019-03-29T00:25:58.325Z,4.00
2019-03-29T00:28:30.911Z,3.90
2019-03-29T00:31:02.777Z,3.90
2019-03-29T00:33:34.711Z,3.90
2019-03-29T00:36:06.749Z,3.90
2019-03-29T00:38:38.827Z,3.90
2019-03-29T00:41:10.605Z,3.80
2019-03-29T00:43:42.654Z,3.80
2019-03-29T00:46:14.477Z,3.80
2019-03-29T00:48:47.425Z,3.80
2019-03-29T00:51:19.846Z,3.80
2019-03-29T00:53:51.735Z,3.70
2019-03-29T00:56:23.829Z,3.80
2019-03-29T00:58:56.197Z,3.70
2019-03-29T01:01:28.057Z,3.70
2019-03-29T01:04:00.333Z,3.70
2019-03-29T01:06:32.255Z,3.70
2019-03-29T01:09:05.624Z,3.70
2019-03-29T01:11:37.654Z,3.80
2019-03-29T01:14:09.685Z,3.80
2019-03-29T01:16:41.493Z,3.80
2019-03-29T01:19:13.564Z,3.80
2019-03-29T01:21:45.403Z,3.80
2019-03-29T01:24:17.569Z,3.70
2019-03-29T01:26:49.441Z,3.70
2019-03-29T01:29:21.622Z,3.70
2019-03-29T01:31:53.581Z,3.70
2019-03-29T01:34:25.743Z,3.70
2019-03-29T01:36:57.594Z,3.70
2019-03-29T01:39:29.412Z,3.60
2019-03-29T01:42:01.238Z,3.60
2019-03-29T01:44:33.550Z,3.50
2019-03-29T01:47:05.470Z,3.50
2019-03-29T01:49:38.762Z,3.50
2019-03-29T01:52:10.984Z,3.40
2019-03-29T01:54:43.754Z,3.40
2019-03-29T01:57:15.666Z,3.40
2019-03-29T01:59:48.964Z,3.40
2019-03-29T02:02:21.058Z,3.30
2019-03-29T02:04:52.907Z,3.30
2019-03-29T02:07:24.975Z,3.30
2019-03-29T02:09:57.138Z,3.30
2019-03-29T02:12:29.563Z,3.20
2019-03-29T02:15:01.392Z,3.20
2019-03-29T02:17:33.334Z,3.20
2019-03-29T02:20:06.314Z,3.10
2019-03-29T02:22:38.070Z,3.00
2019-03-29T02:25:10.667Z,3.00
2019-03-29T02:27:42.538Z,3.00
2019-03-29T02:30:14.560Z,3.00
2019-03-29T02:32:46.669Z,3.00
2019-03-29T02:35:18.476Z,2.90
2019-03-29T02:37:50.525Z,2.90
2019-03-29T02:40:23.172Z,2.90
2019-03-29T02:42:54.995Z,2.80
2019-03-29T02:45:26.747Z,2.80
2019-03-29T02:47:58.618Z,2.70
2019-03-29T02:50:30.964Z,2.70
2019-03-29T02:53:02.758Z,2.60
2019-03-29T02:55:34.646Z,2.50
2019-03-29T02:58:06.581Z,2.50
2019-03-29T03:00:38.510Z,2.50
2019-03-29T03:03:10.504Z,2.40
2019-03-29T03:05:42.419Z,2.40
2019-03-29T03:08:14.775Z,2.30
2019-03-29T03:10:46.632Z,2.30
2019-03-29T03:13:18.477Z,2.30
2019-03-29T03:15:50.724Z,2.30
2019-03-29T03:18:22.871Z,2.30
2019-03-29T03:20:54.780Z,2.30
2019-03-29T03:23:26.901Z,2.30
2019-03-29T03:25:58.763Z,2.20
2019-03-29T03:28:30.669Z,2.20
2019-03-29T03:31:04.169Z,2.20
2019-03-29T03:33:36.656Z,2.20
2019-03-29T03:36:09.400Z,2.20
2019-03-29T03:38:41.771Z,2.20
2019-03-29T03:41:13.672Z,2.30
2019-03-29T03:43:45.900Z,2.30
2019-03-29T03:46:17.794Z,2.30
2019-03-29T03:48:49.719Z,2.40
2019-03-29T03:51:22.115Z,2.40
2019-03-29T03:53:54.210Z,2.40
2019-03-29T03:56:28.602Z,2.40
2019-03-29T03:59:01.404Z,2.40
2019-03-29T04:01:33.198Z,2.40
2019-03-29T04:04:05.636Z,2.50
2019-03-29T04:06:37.541Z,2.50
2019-03-29T04:09:09.268Z,2.50
2019-03-29T04:11:44.004Z,2.60
2019-03-29T04:14:16.022Z,2.70
2019-03-29T04:16:47.838Z,2.80
2019-03-29T04:19:20.038Z,2.90
2019-03-29T04:21:52.171Z,3.00
2019-03-29T04:24:23.963Z,3.00
2019-03-29T04:26:55.772Z,3.00
2019-03-29T04:29:27.755Z,3.00
2019-03-29T04:31:59.670Z,3.00
2019-03-29T04:34:31.474Z,3.00
2019-03-29T04:37:03.320Z,2.90
2019-03-29T04:39:35.289Z,2.90
2019-03-29T04:42:07.223Z,2.90
2019-03-29T04:44:39.553Z,2.90
2019-03-29T04:47:11.482Z,2.90
2019-03-29T04:49:43.683Z,2.90
2019-03-29T04:52:15.895Z,2.90
2019-03-29T04:54:47.755Z,2.90
2019-03-29T04:57:21.983Z,2.90
2019-03-29T04:59:53.804Z,2.90
2019-03-29T05:02:25.726Z,2.90
2019-03-29T05:04:57.575Z,2.80
2019-03-29T05:07:30.022Z,2.90
2019-03-29T05:10:02.088Z,2.80
2019-03-29T05:12:35.344Z,2.80
2019-03-29T05:15:08.471Z,2.80
2019-03-29T05:17:40.636Z,2.70
2019-03-29T05:20:12.608Z,2.70
2019-03-29T05:22:44.774Z,2.60
2019-03-29T05:25:16.777Z,2.60
2019-03-29T05:27:48.612Z,2.50
2019-03-29T05:30:20.773Z,2.60
2019-03-29T05:32:52.695Z,2.60
2019-03-29T05:35:24.785Z,2.60
2019-03-29T05:37:56.602Z,2.60
2019-03-29T05:40:34.690Z,2.60
2019-03-29T05:43:02.375Z,2.60
2019-03-29T05:45:34.291Z,2.60
2019-03-29T05:48:06.620Z,2.60
2019-03-29T05:50:38.814Z,2.60
2019-03-29T05:53:12.535Z,2.60
2019-03-29T05:55:44.349Z,2.60
2019-03-29T05:58:16.202Z,2.60
2019-03-29T06:00:48.329Z,2.60
2019-03-29T06:03:20.334Z,2.60
2019-03-29T06:05:52.650Z,2.70
2019-03-29T06:08:25.752Z,2.80
2019-03-29T06:10:57.581Z,2.80
2019-03-29T06:13:29.762Z,2.90
2019-03-29T06:16:01.598Z,2.90
2019-03-29T06:18:33.456Z,3.00
2019-03-29T06:21:05.337Z,3.00
2019-03-29T06:23:37.283Z,3.00
2019-03-29T06:26:09.642Z,3.10
2019-03-29T06:28:41.631Z,3.10
2019-03-29T06:31:14.491Z,3.20
2019-03-29T06:33:46.674Z,3.20
2019-03-29T06:36:20.137Z,3.20
2019-03-29T06:38:54.463Z,3.30
2019-03-29T06:41:27.287Z,3.30
2019-03-29T06:44:00.502Z,3.50
2019-03-29T06:46:32.570Z,3.60
2019-03-29T06:49:04.969Z,3.60
2019-03-29T06:51:37.364Z,3.70
2019-03-29T06:54:09.700Z,3.70
2019-03-29T06:56:41.969Z,3.90
2019-03-29T06:59:13.829Z,4.00
2019-03-29T07:01:46.607Z,4.20
2019-03-29T07:04:19.324Z,4.40
2019-03-29T07:06:51.133Z,4.50
2019-03-29T07:09:25.380Z,4.70
2019-03-29T07:11:57.469Z,4.90
2019-03-29T07:14:30.306Z,5.10
2019-03-29T07:17:02.203Z,5.20
2019-03-29T07:19:34.890Z,5.40
2019-03-29T07:22:06.808Z,5.50
2019-03-29T07:24:38.604Z,5.80
2019-03-29T07:27:10.637Z,5.90
2019-03-29T07:29:43.741Z,6.10
2019-03-29T07:32:16.034Z,6.30
2019-03-29T07:34:49.344Z,6.40
2019-03-29T07:37:21.809Z,6.60
2019-03-29T07:39:54.055Z,6.80
2019-03-29T07:42:26.232Z,7.00
2019-03-29T07:44:58.468Z,7.30
2019-03-29T07:47:30.298Z,7.50
2019-03-29T07:50:03.168Z,7.80
2019-03-29T07:52:34.996Z,7.90
2019-03-29T07:55:08.219Z,8.10
2019-03-29T07:57:41.195Z,8.30
2019-03-29T08:00:13.886Z,8.40
2019-03-29T08:02:46.207Z,8.70
2019-03-29T08:05:18.411Z,9.00
2019-03-29T08:07:50.568Z,9.20
2019-03-29T08:10:27.532Z,9.30
2019-03-29T08:12:56.644Z,9.50
2019-03-29T08:15:28.788Z,9.80
2019-03-29T08:18:01.737Z,9.90
2019-03-29T08:20:43.258Z,10.10
2019-03-29T08:23:08.279Z,10.30
2019-03-29T08:25:40.252Z,10.40
2019-03-29T08:28:13.576Z,10.70
2019-03-29T08:30:45.336Z,10.80
2019-03-29T08:33:17.309Z,10.90
2019-03-29T08:35:49.317Z,11.00
2019-03-29T08:38:21.194Z,11.10
2019-03-29T08:40:53.131Z,11.30
2019-03-29T08:43:25.309Z,11.60
2019-03-29T08:45:57.701Z,11.80
2019-03-29T08:48:30.073Z,12.00
2019-03-29T08:51:03.304Z,12.00
2019-03-29T08:53:35.179Z,12.20
2019-03-29T08:56:07.133Z,12.40
2019-03-29T08:58:39.403Z,12.40
2019-03-29T09:01:11.383Z,12.60
2019-03-29T09:03:43.425Z,12.70
2019-03-29T09:06:15.824Z,12.90
2019-03-29T09:08:47.785Z,13.00
2019-03-29T09:11:19.837Z,13.10
2019-03-29T09:13:51.699Z,13.20
2019-03-29T09:16:23.489Z,13.20
2019-03-29T09:18:55.491Z,13.20
2019-03-29T09:21:29.575Z,13.30
2019-03-29T09:24:01.701Z,13.40
2019-03-29T09:26:33.709Z,13.40
2019-03-29T09:29:06.002Z,13.50
2019-03-29T09:31:38.325Z,13.60
2019-03-29T09:34:10.125Z,13.70
2019-03-29T09:36:42.068Z,13.90
2019-03-29T09:39:14.349Z,14.00
2019-03-29T09:41:46.394Z,14.00
2019-03-29T09:44:18.254Z,14.20
2019-03-29T09:46:50.184Z,14.30
2019-03-29T09:49:22.208Z,14.50
2019-03-29T09:51:54.072Z,14.60
2019-03-29T09:54:25.931Z,14.70
2019-03-29T09:56:58.183Z,14.60
2019-03-29T09:59:30.498Z,14.80
2019-03-29T10:02:02.578Z,14.80
2019-03-29T10:04:34.434Z,15.00
2019-03-29T10:07:06.501Z,15.10
2019-03-29T10:09:38.547Z,15.20
2019-03-29T10:12:10.854Z,15.20
2019-03-29T10:14:42.869Z,15.40
2019-03-29T10:17:14.793Z,15.40
2019-03-29T10:19:49.739Z,15.50
2019-03-29T10:22:20.539Z,15.30
2019-03-29T10:24:52.445Z,15.30
2019-03-29T10:27:24.246Z,15.50
2019-03-29T10:29:56.192Z,15.60
2019-03-29T10:32:27.942Z,15.90
2019-03-29T10:34:59.850Z,16.00
2019-03-29T10:37:31.698Z,16.00
2019-03-29T10:40:04.576Z,15.90
2019-03-29T10:42:39.815Z,16.20
2019-03-29T10:45:09.908Z,16.20
2019-03-29T10:47:44.003Z,16.50
2019-03-29T10:50:15.314Z,16.60
2019-03-29T10:52:47.144Z,16.60
2019-03-29T10:55:20.194Z,16.50
2019-03-29T10:57:51.978Z,16.60
2019-03-29T11:00:34.685Z,17.00
2019-03-29T11:03:07.656Z,17.00
2019-03-29T11:05:41.302Z,17.00
2019-03-29T11:08:13.469Z,17.20
2019-03-29T11:10:45.669Z,17.40
2019-03-29T11:13:17.679Z,17.70
2019-03-29T11:15:49.624Z,17.60
2019-03-29T11:18:21.729Z,17.60
2019-03-29T11:20:53.878Z,17.70
2019-03-29T11:23:26.552Z,17.80
2019-03-29T11:25:58.715Z,17.80
2019-03-29T11:28:30.585Z,17.80
2019-03-29T11:31:02.568Z,18.00
2019-03-29T11:33:34.930Z,17.90
2019-03-29T11:36:07.107Z,17.90
2019-03-29T11:38:39.208Z,18.40
2019-03-29T11:41:11.191Z,18.20
2019-03-29T11:43:45.069Z,18.20
2019-03-29T11:46:18.647Z,18.40
2019-03-29T11:48:50.977Z,18.50
2019-03-29T11:51:23.780Z,18.60
2019-03-29T11:53:55.690Z,18.70
2019-03-29T11:56:27.710Z,19.30
2019-03-29T11:59:00.539Z,19.10
2019-03-29T12:01:34.359Z,19.00
2019-03-29T12:04:06.579Z,19.40
2019-03-29T12:06:38.590Z,19.50
2019-03-29T12:09:10.862Z,19.70
2019-03-29T12:11:42.764Z,20.00
2019-03-29T12:14:14.717Z,19.80
2019-03-29T12:16:46.676Z,19.60
2019-03-29T12:19:18.606Z,19.60
2019-03-29T12:21:50.533Z,19.40
2019-03-29T12:24:22.726Z,19.80
2019-03-29T12:26:55.070Z,20.50
2019-03-29T12:29:27.467Z,20.70
2019-03-29T12:31:59.480Z,20.70
2019-03-29T12:34:31.366Z,20.60
2019-03-29T12:37:03.444Z,20.70
2019-03-29T12:39:35.577Z,20.80
2019-03-29T12:42:09.468Z,20.70
2019-03-29T12:44:41.741Z,20.60
2019-03-29T12:47:13.941Z,20.20
2019-03-29T12:49:45.890Z,19.70
2019-03-29T12:52:17.975Z,20.00
2019-03-29T12:54:50.041Z,19.70
2019-03-29T12:57:22.176Z,19.70
2019-03-29T12:59:54.056Z,19.60
2019-03-29T13:02:26.028Z,19.70
2019-03-29T13:04:58.192Z,19.90
2019-03-29T13:07:30.114Z,20.00
2019-03-29T13:10:02.441Z,19.80
2019-03-29T13:12:34.380Z,19.30
2019-03-29T13:15:07.760Z,18.70
2019-03-29T13:17:39.728Z,18.90
2019-03-29T13:20:11.930Z,19.20
2019-03-29T13:22:43.810Z,19.40
2019-03-29T13:25:15.854Z,19.20
2019-03-29T13:27:47.927Z,19.60
2019-03-29T13:30:20.066Z,19.70
2019-03-29T13:32:52.446Z,20.20
2019-03-29T13:35:24.659Z,19.90
2019-03-29T13:37:56.835Z,19.40
2019-03-29T13:40:29.638Z,19.00
2019-03-29T13:43:04.659Z,19.00
2019-03-29T13:45:38.186Z,18.40
2019-03-29T13:48:12.016Z,18.80
2019-03-29T13:50:45.460Z,18.70
2019-03-29T13:53:17.968Z,18.70
2019-03-29T13:55:50.104Z,18.60
2019-03-29T13:58:21.907Z,18.70
2019-03-29T14:00:53.899Z,18.80
2019-03-29T14:03:26.381Z,19.30
2019-03-29T14:05:58.695Z,19.40
2019-03-29T14:08:31.528Z,19.70
2019-03-29T14:11:04.075Z,19.40
2019-03-29T14:13:36.213Z,19.30
2019-03-29T14:16:08.617Z,19.40
2019-03-29T14:18:40.681Z,19.90
2019-03-29T14:21:12.665Z,19.90
2019-03-29T14:23:44.915Z,19.60
2019-03-29T14:26:16.723Z,19.40
2019-03-29T14:28:48.644Z,19.20
2019-03-29T14:31:20.782Z,19.70
2019-03-29T14:33:52.715Z,19.40
2019-03-29T14:36:24.551Z,19.20
2019-03-29T14:38:56.777Z,19.10
2019-03-29T14:41:29.118Z,19.10
2019-03-29T14:44:01.799Z,19.10
2019-03-29T14:46:33.828Z,19.10
2019-03-29T14:49:06.094Z,18.90
2019-03-29T14:51:38.339Z,18.90
2019-03-29T14:54:10.470Z,18.70
2019-03-29T14:56:42.368Z,18.80
2019-03-29T14:59:14.262Z,19.10
2019-03-29T15:01:46.332Z,18.90
2019-03-29T15:04:18.129Z,19.10
2019-03-29T15:06:50.323Z,18.90
2019-03-29T15:09:23.144Z,18.80
2019-03-29T15:11:55.050Z,18.80
2019-03-29T15:14:27.457Z,19.00
2019-03-29T15:16:59.259Z,18.90
2019-03-29T15:19:31.133Z,18.60
2019-03-29T15:22:04.080Z,18.80
2019-03-29T15:24:37.450Z,18.70
2019-03-29T15:27:09.472Z,18.80
2019-03-29T15:29:41.412Z,19.00
2019-03-29T15:32:13.400Z,18.70
2019-03-29T15:34:45.644Z,18.50
2019-03-29T15:37:17.608Z,18.40
2019-03-29T15:39:49.800Z,18.30
2019-03-29T15:42:21.683Z,18.30
2019-03-29T15:44:53.820Z,18.30
2019-03-29T15:47:25.624Z,18.40
2019-03-29T15:49:57.588Z,18.40
2019-03-29T15:52:29.435Z,18.40
2019-03-29T15:55:01.367Z,18.50
2019-03-29T15:57:33.514Z,18.80
2019-03-29T16:00:07.731Z,18.90
2019-03-29T16:02:41.324Z,19.00
2019-03-29T16:05:13.280Z,18.90
2019-03-29T16:07:45.623Z,18.50
2019-03-29T16:10:17.888Z,18.50
2019-03-29T16:12:49.836Z,18.40
2019-03-29T16:15:33.485Z,18.30
2019-03-29T16:17:56.169Z,18.10
2019-03-29T16:20:28.319Z,18.20
2019-03-29T16:23:00.237Z,18.20
2019-03-29T16:25:32.746Z,17.90
2019-03-29T16:28:05.486Z,17.60
2019-03-29T16:30:37.799Z,17.60
2019-03-29T16:33:09.796Z,17.50
2019-03-29T16:35:41.631Z,17.60
2019-03-29T16:38:14.733Z,17.50
2019-03-29T16:40:47.314Z,17.40
2019-03-29T16:43:19.963Z,17.20
2019-03-29T16:45:51.724Z,17.00
2019-03-29T16:48:23.606Z,16.80
2019-03-29T16:50:55.950Z,16.70
2019-03-29T16:53:27.889Z,16.50
2019-03-29T16:55:59.789Z,16.40
2019-03-29T16:58:31.954Z,16.30
2019-03-29T17:01:04.097Z,16.20
2019-03-29T17:03:36.517Z,16.10
2019-03-29T17:06:09.519Z,16.00
2019-03-29T17:08:41.733Z,15.90
2019-03-29T17:11:13.654Z,15.90
2019-03-29T17:13:45.472Z,15.80
2019-03-29T17:16:29.668Z,15.60
2019-03-29T17:18:51.011Z,15.50
2019-03-29T17:21:24.371Z,15.40
2019-03-29T17:23:56.380Z,15.30
2019-03-29T17:26:28.227Z,15.20
2019-03-29T17:29:00.539Z,15.10
2019-03-29T17:31:32.605Z,15.00
2019-03-29T17:34:04.659Z,14.80
2019-03-29T17:36:36.657Z,14.70
2019-03-29T17:39:08.879Z,14.60
2019-03-29T17:41:43.128Z,14.50
2019-03-29T17:44:15.152Z,14.40
2019-03-29T17:46:47.164Z,14.30
2019-03-29T17:49:19.077Z,14.20
2019-03-29T17:51:51.235Z,14.10
2019-03-29T17:54:23.125Z,14.00
2019-03-29T17:56:55.110Z,13.90
2019-03-29T17:59:27.129Z,13.80
2019-03-29T18:02:09.232Z,13.70
2019-03-29T18:04:35.751Z,13.60
2019-03-29T18:07:07.708Z,13.40
2019-03-29T18:09:40.091Z,13.30
2019-03-29T18:12:13.011Z,13.20
2019-03-29T18:14:44.749Z,13.10
2019-03-29T18:17:16.759Z,13.00
2019-03-29T18:19:48.798Z,12.90
2019-03-29T18:22:21.654Z,12.80
2019-03-29T18:24:53.651Z,12.70
2019-03-29T18:27:25.986Z,12.60
2019-03-29T18:29:58.275Z,12.50
2019-03-29T18:32:32.226Z,12.40
2019-03-29T18:35:04.705Z,12.30
2019-03-29T18:37:36.806Z,12.20
2019-03-29T18:40:14.048Z,12.10
2019-03-29T18:42:46.000Z,12.10
2019-03-29T18:45:18.028Z,12.00
2019-03-29T18:47:49.831Z,12.00
2019-03-29T18:50:22.043Z,12.00
2019-03-29T18:52:53.874Z,12.00
2019-03-29T18:55:26.572Z,11.90
2019-03-29T18:57:58.456Z,11.80
2019-03-29T19:00:34.915Z,11.80
2019-03-29T19:03:06.756Z,11.70
2019-03-29T19:05:39.127Z,11.60
2019-03-29T19:08:11.002Z,11.50
2019-03-29T19:10:42.958Z,11.40
2019-03-29T19:13:15.249Z,11.30
2019-03-29T19:15:47.167Z,11.30
2019-03-29T19:18:19.387Z,11.20
2019-03-29T19:20:52.314Z,11.20
2019-03-29T19:23:24.264Z,11.20
2019-03-29T19:25:57.620Z,11.20
2019-03-29T19:28:29.931Z,11.10
2019-03-29T19:31:02.201Z,11.00
2019-03-29T19:33:34.091Z,10.90
2019-03-29T19:36:06.241Z,10.80
2019-03-29T19:38:38.125Z,10.70
2019-03-29T19:41:10.168Z,10.60
2019-03-29T19:43:42.965Z,10.60
2019-03-29T19:46:15.257Z,10.50
2019-03-29T19:48:47.279Z,10.40
2019-03-29T19:51:19.291Z,10.30
2019-03-29T19:53:51.364Z,10.20
2019-03-29T19:56:23.225Z,10.20
2019-03-29T19:58:55.608Z,10.20
2019-03-29T20:01:27.521Z,10.10
2019-03-29T20:03:59.869Z,10.00
2019-03-29T20:06:32.106Z,9.90
2019-03-29T20:09:05.611Z,9.90
2019-03-29T20:11:37.924Z,9.80
2019-03-29T20:14:09.741Z,9.80
2019-03-29T20:16:41.665Z,9.80
2019-03-29T20:19:14.120Z,9.70
2019-03-29T20:21:46.660Z,9.70
2019-03-29T20:24:18.946Z,9.60
2019-03-29T20:26:51.143Z,9.50
2019-03-29T20:29:23.112Z,9.40
2019-03-29T20:31:55.063Z,9.30
2019-03-29T20:34:27.328Z,9.20
2019-03-29T20:36:59.294Z,9.10
2019-03-29T20:39:31.587Z,9.00
2019-03-29T20:42:03.518Z,9.00
2019-03-29T20:44:35.854Z,8.90
2019-03-29T20:47:07.670Z,8.90
2019-03-29T20:49:39.530Z,8.90
2019-03-29T20:52:11.464Z,9.00
2019-03-29T20:54:43.301Z,9.10
2019-03-29T20:57:15.262Z,9.10
2019-03-29T20:59:47.440Z,9.20
2019-03-29T21:02:19.260Z,9.30
2019-03-29T21:04:51.132Z,9.50
2019-03-29T21:07:23.040Z,9.70
2019-03-29T21:09:56.392Z,9.80
2019-03-29T21:12:28.324Z,9.80
2019-03-29T21:15:02.082Z,9.70
2019-03-29T21:17:35.402Z,9.70
2019-03-29T21:20:08.306Z,9.60
2019-03-29T21:22:40.301Z,9.50
2019-03-29T21:25:12.825Z,9.40
2019-03-29T21:27:45.296Z,9.50
2019-03-29T21:30:17.357Z,9.50
2019-03-29T21:32:49.636Z,9.40
2019-03-29T21:35:22.267Z,9.50
2019-03-29T21:37:54.050Z,9.40
2019-03-29T21:40:26.020Z,9.40
2019-03-29T21:43:01.757Z,9.30
2019-03-29T21:45:33.749Z,9.30
2019-03-29T21:48:27.510Z,9.20
2019-03-29T21:50:39.887Z,9.20
2019-03-29T21:53:13.182Z,9.20
2019-03-29T21:55:45.442Z,9.20
2019-03-29T21:58:17.069Z,9.20
2019-03-29T22:00:49.387Z,9.20
2019-03-29T22:03:22.390Z,9.10
2019-03-29T22:05:55.253Z,9.10
2019-03-29T22:08:28.154Z,9.10
2019-03-29T22:11:00.611Z,9.10
2019-03-29T22:13:33.205Z,9.10
2019-03-29T22:16:06.286Z,9.10
2019-03-29T22:18:38.395Z,9.10
2019-03-29T22:21:10.614Z,9.10
2019-03-29T22:23:42.519Z,9.20
2019-03-29T22:26:14.981Z,9.30
2019-03-29T22:28:47.213Z,9.30
2019-03-29T22:31:19.059Z,9.30
2019-03-29T22:33:51.471Z,9.40
2019-03-29T22:36:23.338Z,9.40
2019-03-29T22:38:55.247Z,9.50
2019-03-29T22:41:27.092Z,9.50
2019-03-29T22:43:58.974Z,9.50
2019-03-29T22:46:30.869Z,9.50
2019-03-29T22:49:03.042Z,9.50
2019-03-29T22:51:35.152Z,9.50
2019-03-29T22:54:08.322Z,9.50
2019-03-29T22:56:40.327Z,9.50
2019-03-29T22:59:12.499Z,9.40
2019-03-29T23:01:47.028Z,9.40
2019-03-29T23:04:18.888Z,9.30
2019-03-29T23:06:50.770Z,9.20
2019-03-29T23:09:22.581Z,9.10
2019-03-29T23:11:54.634Z,9.00
2019-03-29T23:14:27.014Z,8.90
2019-03-29T23:16:58.882Z,8.90
2019-03-29T23:19:31.423Z,8.80
2019-03-29T23:22:03.289Z,8.60
2019-03-29T23:24:35.095Z,8.50
2019-03-29T23:27:07.160Z,8.40
2019-03-29T23:29:39.201Z,8.30
2019-03-29T23:32:11.071Z,8.10
2019-03-29T23:34:43.384Z,8.00
2019-03-29T23:37:15.534Z,8.00
2019-03-29T23:39:47.844Z,7.90
2019-03-29T23:42:20.814Z,7.80
2019-03-29T23:44:52.697Z,7.60
2019-03-29T23:47:24.958Z,7.60
2019-03-29T23:49:56.758Z,7.50
2019-03-29T23:52:28.611Z,7.50
2019-03-29T23:55:00.524Z,7.40
2019-03-29T23:57:32.545Z,7.30
